createdAt,value
2019-01-29T00:00:48.368Z,3.90
2019-01-29T00:03:21.500Z,3.80
2019-01-29T00:05:54.679Z,3.60
2019-01-29T00:08:27.924Z,3.40
2019-01-29T00:11:00.961Z,3.30
2019-01-29T00:13:34.000Z,3.20
2019-01-29T00:16:07.262Z,3.20
2019-01-29T00:18:40.571Z,3.20
2019-01-29T00:21:13.782Z,3.10
2019-01-29T00:23:46.743Z,3.10
2019-01-29T00:26:19.927Z,3.10
2019-01-29T00:28:53.310Z,3.00
2019-01-29T00:31:26.612Z,3.10
2019-01-29T00:33:59.999Z,3.00
2019-01-29T00:36:33.540Z,2.90
2019-01-29T00:39:09.879Z,2.90
2019-01-29T00:41:43.024Z,2.90
2019-01-29T00:44:16.090Z,2.90
2019-01-29T00:46:49.110Z,2.90
2019-01-29T00:49:22.759Z,2.90
2019-01-29T00:51:56.151Z,2.90
2019-01-29T00:54:29.147Z,2.90
2019-01-29T00:57:02.075Z,2.90
2019-01-29T00:59:35.349Z,2.90
2019-01-29T01:02:08.363Z,3.00
2019-01-29T01:04:41.588Z,3.00
2019-01-29T01:07:14.874Z,3.00
2019-01-29T01:09:56.823Z,3.10
2019-01-29T01:12:22.831Z,3.00
2019-01-29T01:14:56.089Z,3.20
2019-01-29T01:17:29.128Z,3.20
2019-01-29T01:20:02.152Z,3.20
2019-01-29T01:22:35.437Z,3.10
2019-01-29T01:25:09.661Z,3.10
2019-01-29T01:27:42.633Z,3.20
2019-01-29T01:30:19.110Z,3.10
2019-01-29T01:32:51.907Z,3.10
2019-01-29T01:35:24.824Z,3.10
2019-01-29T01:37:58.764Z,3.10
2019-01-29T01:40:31.970Z,3.10
2019-01-29T01:43:04.829Z,3.10
2019-01-29T01:45:37.859Z,3.10
2019-01-29T01:48:10.863Z,3.00
2019-01-29T01:50:43.660Z,3.00
2019-01-29T01:53:16.829Z,3.00
2019-01-29T01:55:50.987Z,3.00
2019-01-29T01:58:24.053Z,3.00
2019-01-29T02:00:57.082Z,3.10
2019-01-29T02:03:30.356Z,3.00
2019-01-29T02:06:03.567Z,3.10
2019-01-29T02:08:36.874Z,3.10
2019-01-29T02:11:10.002Z,3.10
2019-01-29T02:13:43.337Z,3.00
2019-01-29T02:16:16.413Z,3.00
2019-01-29T02:18:49.496Z,3.00
2019-01-29T02:21:22.547Z,3.10
2019-01-29T02:23:55.877Z,3.10
2019-01-29T02:26:29.054Z,3.10
2019-01-29T02:29:02.122Z,3.10
2019-01-29T02:31:36.515Z,3.10
2019-01-29T02:34:09.809Z,3.10
2019-01-29T02:36:44.571Z,3.10
2019-01-29T02:39:17.313Z,3.20
2019-01-29T02:41:50.177Z,3.20
2019-01-29T02:44:23.126Z,3.10
2019-01-29T02:46:56.076Z,3.20
2019-01-29T02:49:29.227Z,3.10
2019-01-29T02:52:02.903Z,3.10
2019-01-29T02:54:36.997Z,3.00
2019-01-29T02:57:10.069Z,2.90
2019-01-29T02:59:42.949Z,2.90
2019-01-29T03:02:15.793Z,2.90
2019-01-29T03:04:48.613Z,2.90
2019-01-29T03:07:21.623Z,2.90
2019-01-29T03:09:54.812Z,2.90
2019-01-29T03:12:29.076Z,3.00
2019-01-29T03:15:01.944Z,2.90
2019-01-29T03:17:34.961Z,2.90
2019-01-29T03:20:10.036Z,3.00
2019-01-29T03:22:42.844Z,2.90
2019-01-29T03:25:16.257Z,3.00
2019-01-29T03:27:49.410Z,2.90
2019-01-29T03:30:23.340Z,3.00
2019-01-29T03:32:56.224Z,2.90
2019-01-29T03:35:29.418Z,3.00
2019-01-29T03:38:03.621Z,2.90
2019-01-29T03:40:36.835Z,2.90
2019-01-29T03:43:11.280Z,2.90
2019-01-29T03:45:44.403Z,2.90
2019-01-29T03:48:17.307Z,2.90
2019-01-29T03:50:50.514Z,2.80
2019-01-29T03:53:23.580Z,2.90
2019-01-29T03:55:57.118Z,2.80
2019-01-29T03:58:30.268Z,2.90
2019-01-29T04:01:03.228Z,2.90
2019-01-29T04:03:36.378Z,2.80
2019-01-29T04:06:09.449Z,2.90
2019-01-29T04:08:42.547Z,2.90
2019-01-29T04:11:16.120Z,2.80
2019-01-29T04:13:49.525Z,2.80
2019-01-29T04:16:22.617Z,2.90
2019-01-29T04:19:16.076Z,2.90
2019-01-29T04:21:49.547Z,2.80
2019-01-29T04:24:22.476Z,2.90
2019-01-29T04:26:55.587Z,2.90
2019-01-29T04:29:28.718Z,2.90
2019-01-29T04:32:01.894Z,2.90
2019-01-29T04:34:35.041Z,2.90
2019-01-29T04:37:08.407Z,2.90
2019-01-29T04:39:41.639Z,2.90
2019-01-29T04:42:14.672Z,2.90
2019-01-29T04:44:47.605Z,2.90
2019-01-29T04:47:21.670Z,2.90
2019-01-29T04:49:54.630Z,2.90
2019-01-29T04:52:27.711Z,2.90
2019-01-29T04:55:02.285Z,2.90
2019-01-29T04:57:35.312Z,2.90
2019-01-29T05:00:15.697Z,2.90
2019-01-29T05:02:48.750Z,2.90
2019-01-29T05:05:22.865Z,2.90
2019-01-29T05:07:56.277Z,2.90
2019-01-29T05:10:29.576Z,2.80
2019-01-29T05:13:02.746Z,2.80
2019-01-29T05:15:35.774Z,2.80
2019-01-29T05:18:08.971Z,2.90
2019-01-29T05:20:42.095Z,2.90
2019-01-29T05:23:15.624Z,3.00
2019-01-29T05:25:48.786Z,3.00
2019-01-29T05:28:21.684Z,2.90
2019-01-29T05:30:55.003Z,2.90
2019-01-29T05:33:28.392Z,2.90
2019-01-29T05:36:01.737Z,2.80
2019-01-29T05:38:34.948Z,2.90
2019-01-29T05:41:08.242Z,2.90
2019-01-29T05:43:41.279Z,2.90
2019-01-29T05:46:14.292Z,2.90
2019-01-29T05:48:47.441Z,2.90
2019-01-29T05:51:20.801Z,2.90
2019-01-29T05:53:54.192Z,2.90
2019-01-29T05:56:27.275Z,2.90
2019-01-29T05:59:00.324Z,2.90
2019-01-29T06:01:33.520Z,2.90
2019-01-29T06:04:06.677Z,2.90
2019-01-29T06:06:39.634Z,2.90
2019-01-29T06:09:12.936Z,2.90
2019-01-29T06:11:46.250Z,2.90
2019-01-29T06:14:19.104Z,2.90
2019-01-29T06:16:52.277Z,3.00
2019-01-29T06:19:25.619Z,3.00
2019-01-29T06:22:04.527Z,2.90
2019-01-29T06:24:42.699Z,2.90
2019-01-29T06:27:23.376Z,2.90
2019-01-29T06:29:59.851Z,2.90
2019-01-29T06:32:39.831Z,2.90
2019-01-29T06:35:17.131Z,2.90
2019-01-29T06:37:55.753Z,2.90
2019-01-29T06:40:31.099Z,2.90
2019-01-29T06:43:07.356Z,3.00
2019-01-29T06:45:45.978Z,3.00
2019-01-29T06:48:26.180Z,3.10
2019-01-29T06:51:02.179Z,3.10
2019-01-29T06:53:45.535Z,3.10
2019-01-29T06:56:23.805Z,3.10
2019-01-29T06:59:01.032Z,3.10
2019-01-29T07:01:37.934Z,3.10
2019-01-29T07:04:19.042Z,3.30
2019-01-29T07:06:54.532Z,3.30
2019-01-29T07:09:32.194Z,3.40
2019-01-29T07:12:08.837Z,3.40
2019-01-29T07:14:43.573Z,3.50
2019-01-29T07:17:36.362Z,3.60
2019-01-29T07:20:13.861Z,3.60
2019-01-29T07:22:46.279Z,3.70
2019-01-29T07:25:18.676Z,3.80
2019-01-29T07:27:51.412Z,3.90
2019-01-29T07:30:27.749Z,3.90
2019-01-29T07:33:00.266Z,4.00
2019-01-29T07:35:33.082Z,4.10
2019-01-29T07:38:05.631Z,4.20
2019-01-29T07:40:38.205Z,4.30
2019-01-29T07:43:10.377Z,4.40
2019-01-29T07:45:42.984Z,4.50
2019-01-29T07:48:16.018Z,4.60
2019-01-29T07:50:48.423Z,4.80
2019-01-29T07:53:21.273Z,4.80
2019-01-29T07:55:53.832Z,5.00
2019-01-29T07:58:26.465Z,5.00
2019-01-29T08:00:58.795Z,5.00
2019-01-29T08:03:31.246Z,5.00
2019-01-29T08:06:04.234Z,5.00
2019-01-29T08:08:37.050Z,5.00
2019-01-29T08:11:09.578Z,5.00
2019-01-29T08:13:42.121Z,5.00
2019-01-29T08:16:15.589Z,5.00
2019-01-29T08:18:48.091Z,4.90
2019-01-29T08:21:21.462Z,4.90
2019-01-29T08:23:54.977Z,4.80
2019-01-29T08:26:27.515Z,4.70
2019-01-29T08:28:59.848Z,4.80
2019-01-29T08:31:32.279Z,4.70
2019-01-29T08:34:05.934Z,4.70
2019-01-29T08:36:38.855Z,4.70
2019-01-29T08:39:12.466Z,4.80
2019-01-29T08:41:47.672Z,4.80
2019-01-29T08:44:22.488Z,4.70
2019-01-29T08:46:55.556Z,4.60
2019-01-29T08:49:28.550Z,4.60
2019-01-29T08:52:00.663Z,4.70
2019-01-29T08:54:33.376Z,4.70
2019-01-29T08:57:06.053Z,4.70
2019-01-29T08:59:38.565Z,4.80
2019-01-29T09:02:11.036Z,4.80
2019-01-29T09:04:44.079Z,4.70
2019-01-29T09:07:17.139Z,4.70
2019-01-29T09:09:50.155Z,4.80
2019-01-29T09:12:23.414Z,4.80
2019-01-29T09:14:56.050Z,4.80
2019-01-29T09:17:28.576Z,4.70
2019-01-29T09:20:03.131Z,4.60
2019-01-29T09:22:34.919Z,4.70
2019-01-29T09:25:08.935Z,4.60
2019-01-29T09:27:41.648Z,4.60
2019-01-29T09:30:16.782Z,4.60
2019-01-29T09:32:49.978Z,4.60
2019-01-29T09:35:24.333Z,4.60
2019-01-29T09:37:56.640Z,4.60
2019-01-29T09:40:29.191Z,4.60
2019-01-29T09:43:01.815Z,4.70
2019-01-29T09:45:34.662Z,4.70
2019-01-29T09:48:07.871Z,4.60
2019-01-29T09:50:40.733Z,4.60
2019-01-29T09:53:13.546Z,4.60
2019-01-29T09:55:46.400Z,4.60
2019-01-29T09:58:19.031Z,4.60
2019-01-29T10:00:51.681Z,4.80
2019-01-29T10:03:24.592Z,4.80
2019-01-29T10:05:57.423Z,4.80
2019-01-29T10:08:30.092Z,4.80
2019-01-29T10:11:03.488Z,4.90
2019-01-29T10:13:36.222Z,4.90
2019-01-29T10:16:09.065Z,4.90
2019-01-29T10:18:41.777Z,4.90
2019-01-29T10:21:14.668Z,5.00
2019-01-29T10:23:49.600Z,4.90
2019-01-29T10:26:22.298Z,4.90
2019-01-29T10:28:55.039Z,4.90
2019-01-29T10:31:27.633Z,4.90
2019-01-29T10:34:02.467Z,4.90
2019-01-29T10:36:36.497Z,5.00
2019-01-29T10:39:11.920Z,5.00
2019-01-29T10:41:45.840Z,5.20
2019-01-29T10:44:18.385Z,5.20
2019-01-29T10:46:50.838Z,5.20
2019-01-29T10:49:23.601Z,5.30
2019-01-29T10:51:56.094Z,5.40
2019-01-29T10:54:30.573Z,5.50
2019-01-29T10:57:04.025Z,5.60
2019-01-29T10:59:47.573Z,5.70
2019-01-29T11:02:21.259Z,5.70
2019-01-29T11:04:54.071Z,5.80
2019-01-29T11:07:26.612Z,5.90
2019-01-29T11:09:59.401Z,6.00
2019-01-29T11:12:32.565Z,6.10
2019-01-29T11:15:12.337Z,6.20
2019-01-29T11:17:45.080Z,6.30
2019-01-29T11:20:19.582Z,6.30
2019-01-29T11:23:05.338Z,6.40
2019-01-29T11:25:45.779Z,6.40
2019-01-29T11:28:18.533Z,6.50
2019-01-29T11:30:51.188Z,6.40
2019-01-29T11:33:23.742Z,6.40
2019-01-29T11:35:56.756Z,6.40
2019-01-29T11:38:29.086Z,6.40
2019-01-29T11:41:02.529Z,6.40
2019-01-29T11:43:34.859Z,6.40
2019-01-29T11:46:08.418Z,6.30
2019-01-29T11:48:40.811Z,6.30
2019-01-29T11:51:13.298Z,6.30
2019-01-29T11:53:45.779Z,6.20
2019-01-29T11:56:18.306Z,6.20
2019-01-29T11:58:50.412Z,6.20
2019-01-29T12:01:25.794Z,6.10
2019-01-29T12:03:58.142Z,6.10
2019-01-29T12:06:30.401Z,6.10
2019-01-29T12:09:02.983Z,6.10
2019-01-29T12:11:35.474Z,6.10
2019-01-29T12:14:08.140Z,6.20
2019-01-29T12:16:40.613Z,6.20
2019-01-29T12:19:13.096Z,6.20
2019-01-29T12:21:45.569Z,6.20
2019-01-29T12:24:18.072Z,6.30
2019-01-29T12:26:50.608Z,6.30
2019-01-29T12:29:25.685Z,6.40
2019-01-29T12:31:57.947Z,6.40
2019-01-29T12:34:30.280Z,6.40
2019-01-29T12:37:02.614Z,6.40
2019-01-29T12:39:35.234Z,6.50
2019-01-29T12:42:07.606Z,6.50
2019-01-29T12:44:40.744Z,6.50
2019-01-29T12:47:12.989Z,6.50
2019-01-29T12:49:46.904Z,6.60
2019-01-29T12:52:28.716Z,6.50
2019-01-29T12:55:01.210Z,6.50
2019-01-29T12:57:35.237Z,6.50
2019-01-29T13:00:14.449Z,6.40
2019-01-29T13:02:47.002Z,6.40
2019-01-29T13:05:19.819Z,6.30
2019-01-29T13:07:52.663Z,6.20
2019-01-29T13:10:25.355Z,6.20
2019-01-29T13:12:58.959Z,6.20
2019-01-29T13:15:31.864Z,6.10
2019-01-29T13:18:05.214Z,6.20
2019-01-29T13:20:37.757Z,6.10
2019-01-29T13:23:10.712Z,6.10
2019-01-29T13:25:43.538Z,6.20
2019-01-29T13:28:16.501Z,6.10
2019-01-29T13:30:48.855Z,6.10
2019-01-29T13:33:21.887Z,6.10
2019-01-29T13:35:55.625Z,6.00
2019-01-29T13:38:32.460Z,6.00
2019-01-29T13:41:05.204Z,5.90
2019-01-29T13:43:38.089Z,5.90
2019-01-29T13:46:10.732Z,5.80
2019-01-29T13:48:43.012Z,5.70
2019-01-29T13:51:15.686Z,5.70
2019-01-29T13:53:47.886Z,5.70
2019-01-29T13:56:20.542Z,5.70
2019-01-29T13:58:52.740Z,5.70
2019-01-29T14:01:25.539Z,5.60
2019-01-29T14:04:05.773Z,5.60
2019-01-29T14:06:32.256Z,5.60
2019-01-29T14:09:07.061Z,5.60
2019-01-29T14:11:43.525Z,5.50
2019-01-29T14:14:16.269Z,5.50
2019-01-29T14:16:48.592Z,5.40
2019-01-29T14:19:21.816Z,5.40
2019-01-29T14:21:54.640Z,5.40
2019-01-29T14:24:27.236Z,5.40
2019-01-29T14:27:00.205Z,5.40
2019-01-29T14:29:32.851Z,5.40
2019-01-29T14:32:06.331Z,5.30
2019-01-29T14:34:43.065Z,5.30
2019-01-29T14:37:16.333Z,5.30
2019-01-29T14:40:21.511Z,5.30
2019-01-29T14:42:54.677Z,5.30
2019-01-29T14:45:30.111Z,5.30
2019-01-29T14:48:03.255Z,5.20
2019-01-29T14:50:36.665Z,5.20
2019-01-29T14:53:10.171Z,5.20
2019-01-29T14:55:42.724Z,5.10
2019-01-29T14:58:15.403Z,5.10
2019-01-29T15:00:48.484Z,5.10
2019-01-29T15:03:22.848Z,5.10
2019-01-29T15:05:56.737Z,5.00
2019-01-29T15:08:29.419Z,5.00
2019-01-29T15:11:03.424Z,4.90
2019-01-29T15:13:36.112Z,4.90
2019-01-29T15:16:49.549Z,4.80
2019-01-29T15:19:24.073Z,4.80
2019-01-29T15:21:57.750Z,4.80
2019-01-29T15:24:29.989Z,4.70
2019-01-29T15:27:05.813Z,4.80
2019-01-29T15:29:36.506Z,4.80
2019-01-29T15:32:08.864Z,4.70
2019-01-29T15:34:41.175Z,4.70
2019-01-29T15:37:13.875Z,4.70
2019-01-29T15:39:46.468Z,4.70
2019-01-29T15:42:18.740Z,4.70
2019-01-29T15:44:51.141Z,4.60
2019-01-29T15:47:23.314Z,4.60
2019-01-29T15:49:56.435Z,4.50
2019-01-29T15:52:28.693Z,4.50
2019-01-29T15:55:01.122Z,4.50
2019-01-29T15:57:33.418Z,4.50
2019-01-29T16:00:08.447Z,4.60
2019-01-29T16:02:40.645Z,4.50
2019-01-29T16:05:16.859Z,4.50
2019-01-29T16:08:01.826Z,4.50
2019-01-29T16:10:39.802Z,4.50
2019-01-29T16:13:09.795Z,4.50
2019-01-29T16:15:42.806Z,4.50
2019-01-29T16:18:15.454Z,4.50
2019-01-29T16:20:47.692Z,4.50
2019-01-29T16:23:19.900Z,4.50
2019-01-29T16:25:52.302Z,4.60
2019-01-29T16:28:24.621Z,4.60
2019-01-29T16:30:56.884Z,4.50
2019-01-29T16:33:29.282Z,4.50
2019-01-29T16:36:02.932Z,4.50
2019-01-29T16:38:35.050Z,4.50
2019-01-29T16:41:07.423Z,4.50
2019-01-29T16:43:39.607Z,4.50
2019-01-29T16:46:12.210Z,4.40
2019-01-29T16:48:44.563Z,4.50
2019-01-29T16:51:16.916Z,4.40
2019-01-29T16:53:49.395Z,4.50
2019-01-29T16:56:21.834Z,4.50
2019-01-29T16:58:54.089Z,4.40
2019-01-29T17:01:26.288Z,4.50
2019-01-29T17:03:58.600Z,4.40
2019-01-29T17:06:30.979Z,4.40
2019-01-29T17:09:03.445Z,4.30
2019-01-29T17:11:35.882Z,4.30
2019-01-29T17:14:08.402Z,4.40
2019-01-29T17:16:40.781Z,4.30
2019-01-29T17:19:15.605Z,4.30
2019-01-29T17:21:48.086Z,4.40
2019-01-29T17:24:20.981Z,4.30
2019-01-29T17:26:53.422Z,4.30
2019-01-29T17:29:25.751Z,4.20
2019-01-29T17:31:57.923Z,4.20
2019-01-29T17:34:30.281Z,4.20
2019-01-29T17:37:02.905Z,4.20
2019-01-29T17:39:35.344Z,4.20
2019-01-29T17:42:07.756Z,4.10
2019-01-29T17:44:40.070Z,4.10
2019-01-29T17:47:12.717Z,4.10
2019-01-29T17:49:45.013Z,4.10
2019-01-29T17:52:17.148Z,4.00
2019-01-29T17:54:49.341Z,4.00
2019-01-29T17:57:21.791Z,4.00
2019-01-29T17:59:53.923Z,3.90
2019-01-29T18:02:26.324Z,3.90
2019-01-29T18:04:58.597Z,3.90
2019-01-29T18:07:30.849Z,3.90
2019-01-29T18:10:06.843Z,3.90
2019-01-29T18:12:39.506Z,3.80
2019-01-29T18:15:17.324Z,3.80
2019-01-29T18:17:49.806Z,3.80
2019-01-29T18:20:22.267Z,3.90
2019-01-29T18:22:54.639Z,3.80
2019-01-29T18:25:27.190Z,3.80
2019-01-29T18:28:01.304Z,3.90
2019-01-29T18:30:35.594Z,3.90
2019-01-29T18:33:08.277Z,3.90
2019-01-29T18:35:40.897Z,3.90
2019-01-29T18:38:13.402Z,3.90
2019-01-29T18:40:53.856Z,3.90
2019-01-29T18:43:26.478Z,3.90
2019-01-29T18:45:58.913Z,3.90
2019-01-29T18:48:31.235Z,3.90
2019-01-29T18:51:03.876Z,3.90
2019-01-29T18:53:36.245Z,3.90
2019-01-29T18:56:08.783Z,3.90
2019-01-29T18:58:41.351Z,4.00
2019-01-29T19:01:13.786Z,4.00
2019-01-29T19:03:46.267Z,4.10
2019-01-29T19:06:18.556Z,4.10
2019-01-29T19:08:50.899Z,4.00
2019-01-29T19:11:23.543Z,4.00
2019-01-29T19:13:55.759Z,4.00
2019-01-29T19:16:28.056Z,4.00
2019-01-29T19:19:00.579Z,4.00
2019-01-29T19:21:32.742Z,4.00
2019-01-29T19:24:05.388Z,4.00
2019-01-29T19:26:37.768Z,4.00
2019-01-29T19:29:10.344Z,4.00
2019-01-29T19:31:42.719Z,4.00
2019-01-29T19:34:15.245Z,4.00
2019-01-29T19:36:48.033Z,4.00
2019-01-29T19:39:21.430Z,4.00
2019-01-29T19:41:53.942Z,4.10
2019-01-29T19:44:26.247Z,4.10
2019-01-29T19:46:58.606Z,4.00
2019-01-29T19:49:30.781Z,4.00
2019-01-29T19:52:03.042Z,4.00
2019-01-29T19:54:35.407Z,4.10
2019-01-29T19:57:08.122Z,4.10
2019-01-29T19:59:40.896Z,4.10
2019-01-29T20:02:13.486Z,4.10
2019-01-29T20:04:46.974Z,4.00
2019-01-29T20:07:19.210Z,4.00
2019-01-29T20:09:51.446Z,4.00
2019-01-29T20:12:25.081Z,4.00
2019-01-29T20:14:57.549Z,4.00
2019-01-29T20:17:30.104Z,4.00
2019-01-29T20:20:04.682Z,4.10
2019-01-29T20:22:37.370Z,4.00
2019-01-29T20:25:10.500Z,4.00
2019-01-29T20:27:42.822Z,4.00
2019-01-29T20:30:19.999Z,4.00
2019-01-29T20:32:53.963Z,4.00
2019-01-29T20:35:26.411Z,3.90
2019-01-29T20:37:59.034Z,3.90
2019-01-29T20:40:31.722Z,4.00
2019-01-29T20:43:07.350Z,4.00
2019-01-29T20:45:40.234Z,3.90
2019-01-29T20:48:12.614Z,3.90
2019-01-29T20:50:45.022Z,3.90
2019-01-29T20:53:17.566Z,3.90
2019-01-29T20:55:49.922Z,3.90
2019-01-29T20:58:22.608Z,3.90
2019-01-29T21:00:55.470Z,3.80
2019-01-29T21:03:27.983Z,3.80
2019-01-29T21:06:02.136Z,3.80
2019-01-29T21:08:34.482Z,3.80
2019-01-29T21:11:07.504Z,3.80
2019-01-29T21:13:41.483Z,3.80
2019-01-29T21:16:13.901Z,3.80
2019-01-29T21:18:46.250Z,3.80
2019-01-29T21:21:18.997Z,3.80
2019-01-29T21:23:51.264Z,3.80
2019-01-29T21:26:23.744Z,3.80
2019-01-29T21:29:02.816Z,3.80
2019-01-29T21:31:32.625Z,3.80
2019-01-29T21:34:04.966Z,3.80
2019-01-29T21:36:37.515Z,3.90
2019-01-29T21:39:14.231Z,3.80
2019-01-29T21:41:46.333Z,3.80
2019-01-29T21:44:18.531Z,3.70
2019-01-29T21:46:50.728Z,3.70
2019-01-29T21:49:22.977Z,3.70
2019-01-29T21:51:55.561Z,3.70
2019-01-29T21:54:27.908Z,3.70
2019-01-29T21:57:00.197Z,3.80
2019-01-29T21:59:32.424Z,3.70
2019-01-29T22:02:05.028Z,3.70
2019-01-29T22:04:37.349Z,3.80
2019-01-29T22:07:09.773Z,3.80
2019-01-29T22:09:42.030Z,3.80
2019-01-29T22:12:14.357Z,3.80
2019-01-29T22:14:46.686Z,3.70
2019-01-29T22:17:18.823Z,3.80
2019-01-29T22:19:51.452Z,3.70
2019-01-29T22:22:24.099Z,3.80
2019-01-29T22:24:56.291Z,3.80
2019-01-29T22:27:28.551Z,3.80
2019-01-29T22:30:00.872Z,3.80
2019-01-29T22:32:33.006Z,3.80
2019-01-29T22:35:05.764Z,3.80
2019-01-29T22:37:38.272Z,3.80
2019-01-29T22:40:15.427Z,3.70
2019-01-29T22:42:47.838Z,3.70
2019-01-29T22:58:05.141Z,3.70
2019-01-29T23:01:40.974Z,3.70
2019-01-29T23:04:37.290Z,3.80
2019-01-29T23:07:32.953Z,3.80
2019-01-29T23:10:11.535Z,3.80
2019-01-29T23:12:44.650Z,3.80
2019-01-29T23:15:20.100Z,3.70
2019-01-29T23:17:53.333Z,3.70
2019-01-29T23:20:26.710Z,3.70
2019-01-29T23:23:00.980Z,3.70
2019-01-29T23:25:34.185Z,3.70
2019-01-29T23:28:07.673Z,3.70
2019-01-29T23:30:42.049Z,3.70
2019-01-29T23:33:15.202Z,3.70
2019-01-29T23:35:48.304Z,3.70
2019-01-29T23:38:21.455Z,3.70
2019-01-29T23:40:54.254Z,3.70
2019-01-29T23:43:27.468Z,3.80
2019-01-29T23:46:00.440Z,3.90
2019-01-29T23:48:33.595Z,3.80
2019-01-29T23:51:06.639Z,3.80
2019-01-29T23:53:40.285Z,3.80
2019-01-29T23:56:13.358Z,3.80
2019-01-29T23:58:46.158Z,3.70
